sensor_id;sensor_type;location;lat;lon;timestamp;P1;durP1;ratioP1;P2;durP2;ratioP2
62052;SDS011;48300;52.902;6.534;2023-04-08T00:01:14;10.10;;;5.88;;
62052;SDS011;48300;52.902;6.534;2023-04-08T00:03:40;11.43;;;5.22;;
62052;SDS011;48300;52.902;6.534;2023-04-08T00:06:06;11.68;;;5.43;;
62052;SDS011;48300;52.902;6.534;2023-04-08T00:08:33;10.32;;;5.35;;
62052;SDS011;48300;52.902;6.534;2023-04-08T00:10:59;14.32;;;6.00;;
62052;SDS011;48300;52.902;6.534;2023-04-08T00:13:25;9.85;;;5.88;;
62052;SDS011;48300;52.902;6.534;2023-04-08T00:15:51;10.13;;;6.03;;
62052;SDS011;48300;52.902;6.534;2023-04-08T00:18:17;11.68;;;5.72;;
62052;SDS011;48300;52.902;6.534;2023-04-08T00:20:44;10.75;;;5.57;;
62052;SDS011;48300;52.902;6.534;2023-04-08T00:23:10;14.27;;;5.78;;
62052;SDS011;48300;52.902;6.534;2023-04-08T00:25:36;11.93;;;5.95;;
62052;SDS011;48300;52.902;6.534;2023-04-08T00:28:02;7.80;;;5.20;;
62052;SDS011;48300;52.902;6.534;2023-04-08T00:30:28;8.93;;;5.00;;
62052;SDS011;48300;52.902;6.534;2023-04-08T00:32:55;11.98;;;5.68;;
62052;SDS011;48300;52.902;6.534;2023-04-08T00:35:21;10.50;;;5.47;;
62052;SDS011;48300;52.902;6.534;2023-04-08T00:37:48;12.48;;;6.07;;
62052;SDS011;48300;52.902;6.534;2023-04-08T00:40:15;10.75;;;5.60;;
62052;SDS011;48300;52.902;6.534;2023-04-08T00:42:41;10.15;;;5.80;;
62052;SDS011;48300;52.902;6.534;2023-04-08T00:45:07;11.00;;;5.95;;
62052;SDS011;48300;52.902;6.534;2023-04-08T00:47:34;9.57;;;5.90;;
62052;SDS011;48300;52.902;6.534;2023-04-08T00:50:01;13.25;;;6.13;;
62052;SDS011;48300;52.902;6.534;2023-04-08T00:52:27;14.68;;;6.25;;
62052;SDS011;48300;52.902;6.534;2023-04-08T00:54:54;9.60;;;5.25;;
62052;SDS011;48300;52.902;6.534;2023-04-08T00:57:20;9.55;;;5.40;;
62052;SDS011;48300;52.902;6.534;2023-04-08T00:59:46;10.73;;;5.28;;
62052;SDS011;48300;52.902;6.534;2023-04-08T01:02:13;16.27;;;6.50;;
62052;SDS011;48300;52.902;6.534;2023-04-08T01:04:52;10.65;;;5.80;;
62052;SDS011;48300;52.902;6.534;2023-04-08T01:07:29;15.30;;;6.05;;
62052;SDS011;48300;52.902;6.534;2023-04-08T01:09:58;12.40;;;6.70;;
62052;SDS011;48300;52.902;6.534;2023-04-08T01:12:28;11.52;;;6.18;;
62052;SDS011;48300;52.902;6.534;2023-04-08T01:15:00;16.00;;;6.80;;
62052;SDS011;48300;52.902;6.534;2023-04-08T01:17:27;10.00;;;5.85;;
62052;SDS011;48300;52.902;6.534;2023-04-08T01:19:55;12.32;;;6.32;;
62052;SDS011;48300;52.902;6.534;2023-04-08T01:25:13;12.48;;;6.32;;
62052;SDS011;48300;52.902;6.534;2023-04-08T01:27:40;12.10;;;6.45;;
62052;SDS011;48300;52.902;6.534;2023-04-08T01:30:07;14.82;;;6.63;;
62052;SDS011;48300;52.902;6.534;2023-04-08T01:35:47;14.98;;;5.97;;
62052;SDS011;48300;52.902;6.534;2023-04-08T01:38:14;13.45;;;6.65;;
62052;SDS011;48300;52.902;6.534;2023-04-08T01:40:42;13.30;;;7.32;;
62052;SDS011;48300;52.902;6.534;2023-04-08T01:43:09;14.35;;;6.82;;
62052;SDS011;48300;52.902;6.534;2023-04-08T01:45:36;12.75;;;7.40;;
62052;SDS011;48300;52.902;6.534;2023-04-08T01:48:02;12.45;;;7.10;;
62052;SDS011;48300;52.902;6.534;2023-04-08T01:50:28;17.02;;;7.68;;
62052;SDS011;48300;52.902;6.534;2023-04-08T01:52:55;13.05;;;7.43;;
62052;SDS011;48300;52.902;6.534;2023-04-08T01:55:22;14.18;;;7.38;;
62052;SDS011;48300;52.902;6.534;2023-04-08T01:57:50;15.68;;;7.35;;
62052;SDS011;48300;52.902;6.534;2023-04-08T02:00:18;12.80;;;7.25;;
62052;SDS011;48300;52.902;6.534;2023-04-08T02:02:45;14.63;;;8.17;;
62052;SDS011;48300;52.902;6.534;2023-04-08T02:05:12;14.63;;;7.07;;
62052;SDS011;48300;52.902;6.534;2023-04-08T02:07:38;16.60;;;7.78;;
62052;SDS011;48300;52.902;6.534;2023-04-08T02:10:05;13.18;;;8.13;;
62052;SDS011;48300;52.902;6.534;2023-04-08T02:12:31;12.85;;;7.78;;
62052;SDS011;48300;52.902;6.534;2023-04-08T02:14:58;12.80;;;8.23;;
62052;SDS011;48300;52.902;6.534;2023-04-08T02:17:28;14.00;;;8.02;;
62052;SDS011;48300;52.902;6.534;2023-04-08T02:22:35;14.68;;;8.75;;
62052;SDS011;48300;52.902;6.534;2023-04-08T02:25:03;15.90;;;8.48;;
62052;SDS011;48300;52.902;6.534;2023-04-08T02:27:33;16.13;;;8.63;;
62052;SDS011;48300;52.902;6.534;2023-04-08T02:30:00;17.25;;;8.25;;
62052;SDS011;48300;52.902;6.534;2023-04-08T02:32:29;18.35;;;8.52;;
62052;SDS011;48300;52.902;6.534;2023-04-08T02:34:56;15.95;;;8.95;;
62052;SDS011;48300;52.902;6.534;2023-04-08T02:37:22;15.35;;;8.75;;
62052;SDS011;48300;52.902;6.534;2023-04-08T02:39:48;17.17;;;8.63;;
62052;SDS011;48300;52.902;6.534;2023-04-08T02:42:15;14.98;;;8.32;;
62052;SDS011;48300;52.902;6.534;2023-04-08T02:44:41;16.33;;;9.45;;
62052;SDS011;48300;52.902;6.534;2023-04-08T02:47:07;14.68;;;8.55;;
62052;SDS011;48300;52.902;6.534;2023-04-08T02:49:33;17.58;;;9.15;;
62052;SDS011;48300;52.902;6.534;2023-04-08T02:51:59;17.80;;;9.02;;
62052;SDS011;48300;52.902;6.534;2023-04-08T02:54:25;15.95;;;9.07;;
62052;SDS011;48300;52.902;6.534;2023-04-08T02:56:51;22.10;;;10.45;;
62052;SDS011;48300;52.902;6.534;2023-04-08T02:59:17;16.25;;;8.82;;
62052;SDS011;48300;52.902;6.534;2023-04-08T03:01:44;15.30;;;8.68;;
62052;SDS011;48300;52.902;6.534;2023-04-08T03:04:10;16.02;;;9.40;;
62052;SDS011;48300;52.902;6.534;2023-04-08T03:06:36;16.13;;;9.75;;
62052;SDS011;48300;52.902;6.534;2023-04-08T03:09:02;19.55;;;10.70;;
62052;SDS011;48300;52.902;6.534;2023-04-08T03:11:30;30.25;;;9.73;;
62052;SDS011;48300;52.902;6.534;2023-04-08T03:13:56;17.00;;;9.00;;
62052;SDS011;48300;52.902;6.534;2023-04-08T03:16:22;18.42;;;9.88;;
62052;SDS011;48300;52.902;6.534;2023-04-08T03:18:49;20.67;;;10.10;;
62052;SDS011;48300;52.902;6.534;2023-04-08T03:21:15;18.83;;;9.85;;
62052;SDS011;48300;52.902;6.534;2023-04-08T03:23:42;17.58;;;9.40;;
62052;SDS011;48300;52.902;6.534;2023-04-08T03:26:08;15.88;;;8.82;;
62052;SDS011;48300;52.902;6.534;2023-04-08T03:28:34;16.27;;;9.73;;
62052;SDS011;48300;52.902;6.534;2023-04-08T03:31:01;17.63;;;10.32;;
62052;SDS011;48300;52.902;6.534;2023-04-08T03:33:28;19.65;;;10.60;;
62052;SDS011;48300;52.902;6.534;2023-04-08T03:35:54;19.27;;;10.73;;
62052;SDS011;48300;52.902;6.534;2023-04-08T03:38:20;18.45;;;10.73;;
62052;SDS011;48300;52.902;6.534;2023-04-08T03:40:47;19.25;;;9.98;;
62052;SDS011;48300;52.902;6.534;2023-04-08T03:43:13;17.98;;;10.02;;
62052;SDS011;48300;52.902;6.534;2023-04-08T03:45:39;18.65;;;10.27;;
62052;SDS011;48300;52.902;6.534;2023-04-08T03:48:06;19.10;;;11.23;;
62052;SDS011;48300;52.902;6.534;2023-04-08T03:50:32;21.13;;;10.95;;
62052;SDS011;48300;52.902;6.534;2023-04-08T03:52:58;19.85;;;12.00;;
62052;SDS011;48300;52.902;6.534;2023-04-08T03:55:25;19.77;;;11.05;;
62052;SDS011;48300;52.902;6.534;2023-04-08T03:57:51;18.67;;;11.18;;
62052;SDS011;48300;52.902;6.534;2023-04-08T04:00:17;20.48;;;10.10;;
62052;SDS011;48300;52.902;6.534;2023-04-08T04:02:43;21.83;;;10.73;;
62052;SDS011;48300;52.902;6.534;2023-04-08T04:05:09;19.40;;;10.50;;
62052;SDS011;48300;52.902;6.534;2023-04-08T04:07:35;19.38;;;10.63;;
62052;SDS011;48300;52.902;6.534;2023-04-08T04:10:01;19.38;;;11.10;;
62052;SDS011;48300;52.902;6.534;2023-04-08T04:12:27;20.27;;;11.35;;
62052;SDS011;48300;52.902;6.534;2023-04-08T04:14:54;22.60;;;11.60;;
62052;SDS011;48300;52.902;6.534;2023-04-08T04:17:21;23.10;;;11.27;;
62052;SDS011;48300;52.902;6.534;2023-04-08T04:19:47;20.80;;;10.95;;
62052;SDS011;48300;52.902;6.534;2023-04-08T04:22:14;20.67;;;11.13;;
62052;SDS011;48300;52.902;6.534;2023-04-08T04:24:40;20.33;;;10.73;;
62052;SDS011;48300;52.902;6.534;2023-04-08T04:27:06;20.27;;;10.13;;
62052;SDS011;48300;52.902;6.534;2023-04-08T04:29:32;19.63;;;11.10;;
62052;SDS011;48300;52.902;6.534;2023-04-08T04:31:58;20.70;;;11.10;;
62052;SDS011;48300;52.902;6.534;2023-04-08T04:34:24;18.63;;;10.30;;
62052;SDS011;48300;52.902;6.534;2023-04-08T04:36:50;25.50;;;12.20;;
62052;SDS011;48300;52.902;6.534;2023-04-08T04:39:16;26.55;;;12.35;;
62052;SDS011;48300;52.902;6.534;2023-04-08T04:41:42;22.33;;;11.10;;
62052;SDS011;48300;52.902;6.534;2023-04-08T04:44:09;19.20;;;10.52;;
62052;SDS011;48300;52.902;6.534;2023-04-08T04:46:35;20.70;;;11.98;;
62052;SDS011;48300;52.902;6.534;2023-04-08T04:49:01;22.55;;;11.52;;
62052;SDS011;48300;52.902;6.534;2023-04-08T04:51:29;19.77;;;10.27;;
62052;SDS011;48300;52.902;6.534;2023-04-08T04:53:56;25.33;;;11.80;;
62052;SDS011;48300;52.902;6.534;2023-04-08T04:56:22;22.77;;;11.45;;
62052;SDS011;48300;52.902;6.534;2023-04-08T04:58:50;24.30;;;11.05;;
62052;SDS011;48300;52.902;6.534;2023-04-08T05:01:16;27.88;;;11.88;;
62052;SDS011;48300;52.902;6.534;2023-04-08T05:03:42;20.35;;;10.95;;
62052;SDS011;48300;52.902;6.534;2023-04-08T05:06:09;20.52;;;10.48;;
62052;SDS011;48300;52.902;6.534;2023-04-08T05:08:35;20.25;;;10.65;;
62052;SDS011;48300;52.902;6.534;2023-04-08T05:11:01;21.58;;;10.73;;
62052;SDS011;48300;52.902;6.534;2023-04-08T05:13:28;18.63;;;10.10;;
62052;SDS011;48300;52.902;6.534;2023-04-08T05:15:54;20.55;;;10.82;;
62052;SDS011;48300;52.902;6.534;2023-04-08T05:18:20;18.95;;;10.90;;
62052;SDS011;48300;52.902;6.534;2023-04-08T05:20:46;18.92;;;10.48;;
62052;SDS011;48300;52.902;6.534;2023-04-08T05:23:13;20.23;;;10.63;;
62052;SDS011;48300;52.902;6.534;2023-04-08T05:25:39;22.02;;;10.57;;
62052;SDS011;48300;52.902;6.534;2023-04-08T05:28:05;19.02;;;10.00;;
62052;SDS011;48300;52.902;6.534;2023-04-08T05:30:32;21.35;;;11.20;;
62052;SDS011;48300;52.902;6.534;2023-04-08T05:32:58;19.55;;;10.73;;
62052;SDS011;48300;52.902;6.534;2023-04-08T05:35:24;21.75;;;11.13;;
62052;SDS011;48300;52.902;6.534;2023-04-08T05:37:50;19.95;;;10.45;;
62052;SDS011;48300;52.902;6.534;2023-04-08T05:40:19;23.08;;;11.60;;
62052;SDS011;48300;52.902;6.534;2023-04-08T05:42:47;21.20;;;10.73;;
62052;SDS011;48300;52.902;6.534;2023-04-08T05:45:13;18.55;;;10.40;;
62052;SDS011;48300;52.902;6.534;2023-04-08T05:47:40;20.88;;;11.75;;
62052;SDS011;48300;52.902;6.534;2023-04-08T05:50:06;22.25;;;11.65;;
62052;SDS011;48300;52.902;6.534;2023-04-08T05:52:33;23.77;;;12.02;;
62052;SDS011;48300;52.902;6.534;2023-04-08T05:54:59;25.05;;;11.88;;
62052;SDS011;48300;52.902;6.534;2023-04-08T05:57:25;25.15;;;12.23;;
62052;SDS011;48300;52.902;6.534;2023-04-08T05:59:51;24.20;;;13.60;;
62052;SDS011;48300;52.902;6.534;2023-04-08T06:02:17;21.55;;;11.85;;
62052;SDS011;48300;52.902;6.534;2023-04-08T06:04:43;23.15;;;11.60;;
62052;SDS011;48300;52.902;6.534;2023-04-08T06:07:10;22.55;;;11.32;;
62052;SDS011;48300;52.902;6.534;2023-04-08T06:09:36;28.55;;;13.77;;
62052;SDS011;48300;52.902;6.534;2023-04-08T06:12:03;24.77;;;13.40;;
62052;SDS011;48300;52.902;6.534;2023-04-08T06:14:29;30.80;;;16.23;;
62052;SDS011;48300;52.902;6.534;2023-04-08T06:16:55;25.90;;;13.45;;
62052;SDS011;48300;52.902;6.534;2023-04-08T06:19:21;24.50;;;13.63;;
62052;SDS011;48300;52.902;6.534;2023-04-08T06:21:48;29.13;;;12.98;;
62052;SDS011;48300;52.902;6.534;2023-04-08T06:24:15;25.90;;;12.73;;
62052;SDS011;48300;52.902;6.534;2023-04-08T06:26:41;26.67;;;14.68;;
62052;SDS011;48300;52.902;6.534;2023-04-08T06:29:08;26.60;;;12.90;;
62052;SDS011;48300;52.902;6.534;2023-04-08T06:31:34;31.25;;;17.25;;
62052;SDS011;48300;52.902;6.534;2023-04-08T06:34:00;30.95;;;14.07;;
62052;SDS011;48300;52.902;6.534;2023-04-08T06:36:26;35.15;;;17.92;;
62052;SDS011;48300;52.902;6.534;2023-04-08T06:38:52;31.05;;;14.68;;
62052;SDS011;48300;52.902;6.534;2023-04-08T06:41:19;25.73;;;12.95;;
62052;SDS011;48300;52.902;6.534;2023-04-08T06:43:45;27.95;;;14.10;;
62052;SDS011;48300;52.902;6.534;2023-04-08T06:46:11;29.13;;;14.57;;
62052;SDS011;48300;52.902;6.534;2023-04-08T06:48:37;63.17;;;33.00;;
62052;SDS011;48300;52.902;6.534;2023-04-08T06:51:04;28.10;;;14.55;;
62052;SDS011;48300;52.902;6.534;2023-04-08T06:53:31;28.98;;;13.15;;
62052;SDS011;48300;52.902;6.534;2023-04-08T06:55:58;28.88;;;13.82;;
62052;SDS011;48300;52.902;6.534;2023-04-08T06:58:24;32.10;;;14.25;;
62052;SDS011;48300;52.902;6.534;2023-04-08T07:00:50;50.75;;;16.75;;
62052;SDS011;48300;52.902;6.534;2023-04-08T07:03:18;31.15;;;14.85;;
62052;SDS011;48300;52.902;6.534;2023-04-08T07:05:46;33.38;;;17.08;;
62052;SDS011;48300;52.902;6.534;2023-04-08T07:08:12;29.10;;;15.32;;
62052;SDS011;48300;52.902;6.534;2023-04-08T07:10:38;30.35;;;14.10;;
62052;SDS011;48300;52.902;6.534;2023-04-08T07:13:04;44.92;;;26.88;;
62052;SDS011;48300;52.902;6.534;2023-04-08T07:15:31;46.25;;;28.67;;
62052;SDS011;48300;52.902;6.534;2023-04-08T07:17:57;37.47;;;20.52;;
62052;SDS011;48300;52.902;6.534;2023-04-08T07:20:24;32.10;;;16.98;;
62052;SDS011;48300;52.902;6.534;2023-04-08T07:22:50;35.35;;;18.38;;
62052;SDS011;48300;52.902;6.534;2023-04-08T07:25:16;30.38;;;15.52;;
62052;SDS011;48300;52.902;6.534;2023-04-08T07:27:42;29.13;;;15.40;;
62052;SDS011;48300;52.902;6.534;2023-04-08T07:30:09;27.15;;;14.55;;
62052;SDS011;48300;52.902;6.534;2023-04-08T07:32:35;30.13;;;15.45;;
62052;SDS011;48300;52.902;6.534;2023-04-08T07:35:01;28.23;;;15.07;;
62052;SDS011;48300;52.902;6.534;2023-04-08T07:37:27;28.17;;;15.65;;
62052;SDS011;48300;52.902;6.534;2023-04-08T07:39:53;23.98;;;12.65;;
62052;SDS011;48300;52.902;6.534;2023-04-08T07:42:20;23.15;;;12.93;;
62052;SDS011;48300;52.902;6.534;2023-04-08T07:44:46;26.95;;;13.50;;
62052;SDS011;48300;52.902;6.534;2023-04-08T07:47:13;23.75;;;12.55;;
62052;SDS011;48300;52.902;6.534;2023-04-08T07:49:39;24.00;;;12.60;;
62052;SDS011;48300;52.902;6.534;2023-04-08T07:52:05;25.05;;;13.85;;
62052;SDS011;48300;52.902;6.534;2023-04-08T07:54:31;28.85;;;14.70;;
62052;SDS011;48300;52.902;6.534;2023-04-08T07:56:59;94.57;;;41.13;;
62052;SDS011;48300;52.902;6.534;2023-04-08T07:59:26;94.60;;;47.40;;
62052;SDS011;48300;52.902;6.534;2023-04-08T08:01:52;58.95;;;31.00;;
62052;SDS011;48300;52.902;6.534;2023-04-08T08:04:18;27.77;;;14.98;;
62052;SDS011;48300;52.902;6.534;2023-04-08T08:06:45;27.67;;;15.38;;
62052;SDS011;48300;52.902;6.534;2023-04-08T08:09:11;25.88;;;14.25;;
62052;SDS011;48300;52.902;6.534;2023-04-08T08:11:38;27.02;;;14.40;;
62052;SDS011;48300;52.902;6.534;2023-04-08T08:14:04;30.05;;;17.17;;
62052;SDS011;48300;52.902;6.534;2023-04-08T08:16:32;22.92;;;13.43;;
62052;SDS011;48300;52.902;6.534;2023-04-08T08:18:58;22.48;;;12.43;;
62052;SDS011;48300;52.902;6.534;2023-04-08T08:21:24;27.35;;;14.48;;
62052;SDS011;48300;52.902;6.534;2023-04-08T08:23:51;25.63;;;13.63;;
62052;SDS011;48300;52.902;6.534;2023-04-08T08:26:18;22.17;;;12.00;;
62052;SDS011;48300;52.902;6.534;2023-04-08T08:28:45;24.98;;;13.10;;
62052;SDS011;48300;52.902;6.534;2023-04-08T08:31:11;23.98;;;13.25;;
62052;SDS011;48300;52.902;6.534;2023-04-08T08:33:37;21.60;;;11.70;;
62052;SDS011;48300;52.902;6.534;2023-04-08T08:36:04;23.38;;;12.02;;
62052;SDS011;48300;52.902;6.534;2023-04-08T08:38:31;23.98;;;13.57;;
62052;SDS011;48300;52.902;6.534;2023-04-08T08:40:57;18.42;;;10.15;;
62052;SDS011;48300;52.902;6.534;2023-04-08T08:43:24;23.25;;;13.10;;
62052;SDS011;48300;52.902;6.534;2023-04-08T08:45:51;25.65;;;11.40;;
62052;SDS011;48300;52.902;6.534;2023-04-08T08:48:17;23.90;;;10.77;;
62052;SDS011;48300;52.902;6.534;2023-04-08T08:50:43;23.42;;;11.88;;
62052;SDS011;48300;52.902;6.534;2023-04-08T08:53:10;24.27;;;12.00;;
62052;SDS011;48300;52.902;6.534;2023-04-08T08:55:36;27.58;;;13.73;;
62052;SDS011;48300;52.902;6.534;2023-04-08T08:58:03;24.13;;;11.88;;
62052;SDS011;48300;52.902;6.534;2023-04-08T09:03:12;21.70;;;12.77;;
62052;SDS011;48300;52.902;6.534;2023-04-08T09:05:46;20.98;;;11.15;;
62052;SDS011;48300;52.902;6.534;2023-04-08T09:08:21;20.90;;;11.13;;
62052;SDS011;48300;52.902;6.534;2023-04-08T09:10:48;21.40;;;11.32;;
62052;SDS011;48300;52.902;6.534;2023-04-08T09:13:14;22.40;;;11.23;;
62052;SDS011;48300;52.902;6.534;2023-04-08T09:16:11;22.48;;;11.07;;
62052;SDS011;48300;52.902;6.534;2023-04-08T09:18:28;21.75;;;11.13;;
62052;SDS011;48300;52.902;6.534;2023-04-08T09:20:54;19.65;;;11.60;;
62052;SDS011;48300;52.902;6.534;2023-04-08T09:23:20;23.20;;;12.05;;
62052;SDS011;48300;52.902;6.534;2023-04-08T09:25:46;22.17;;;11.05;;
62052;SDS011;48300;52.902;6.534;2023-04-08T09:28:21;19.73;;;11.35;;
62052;SDS011;48300;52.902;6.534;2023-04-08T09:30:47;20.30;;;11.13;;
62052;SDS011;48300;52.902;6.534;2023-04-08T09:33:14;22.15;;;12.02;;
62052;SDS011;48300;52.902;6.534;2023-04-08T09:35:40;21.48;;;11.95;;
62052;SDS011;48300;52.902;6.534;2023-04-08T09:38:07;21.58;;;12.18;;
62052;SDS011;48300;52.902;6.534;2023-04-08T09:40:33;19.48;;;10.93;;
62052;SDS011;48300;52.902;6.534;2023-04-08T09:43:03;22.23;;;11.52;;
62052;SDS011;48300;52.902;6.534;2023-04-08T09:45:30;20.80;;;11.38;;
62052;SDS011;48300;52.902;6.534;2023-04-08T09:50:26;19.98;;;11.20;;
62052;SDS011;48300;52.902;6.534;2023-04-08T09:52:59;21.73;;;11.73;;
62052;SDS011;48300;52.902;6.534;2023-04-08T09:55:26;21.75;;;11.15;;
62052;SDS011;48300;52.902;6.534;2023-04-08T09:57:58;23.85;;;11.27;;
62052;SDS011;48300;52.902;6.534;2023-04-08T10:00:28;19.67;;;10.95;;
62052;SDS011;48300;52.902;6.534;2023-04-08T10:03:01;21.17;;;12.10;;
62052;SDS011;48300;52.902;6.534;2023-04-08T10:05:30;18.75;;;10.32;;
62052;SDS011;48300;52.902;6.534;2023-04-08T10:07:56;17.60;;;10.45;;
62052;SDS011;48300;52.902;6.534;2023-04-08T10:10:22;17.83;;;10.35;;
62052;SDS011;48300;52.902;6.534;2023-04-08T10:12:49;19.30;;;10.98;;
62052;SDS011;48300;52.902;6.534;2023-04-08T10:17:49;20.25;;;10.77;;
62052;SDS011;48300;52.902;6.534;2023-04-08T10:20:39;18.08;;;10.52;;
62052;SDS011;48300;52.902;6.534;2023-04-08T10:23:07;19.17;;;10.02;;
62052;SDS011;48300;52.902;6.534;2023-04-08T10:25:33;16.75;;;9.93;;
62052;SDS011;48300;52.902;6.534;2023-04-08T10:30:46;18.20;;;11.60;;
62052;SDS011;48300;52.902;6.534;2023-04-08T10:33:14;19.13;;;11.30;;
62052;SDS011;48300;52.902;6.534;2023-04-08T10:35:41;15.43;;;10.18;;
62052;SDS011;48300;52.902;6.534;2023-04-08T10:38:10;17.30;;;9.60;;
62052;SDS011;48300;52.902;6.534;2023-04-08T10:40:37;18.48;;;9.93;;
62052;SDS011;48300;52.902;6.534;2023-04-08T10:43:05;18.75;;;10.32;;
62052;SDS011;48300;52.902;6.534;2023-04-08T10:45:32;19.90;;;9.77;;
62052;SDS011;48300;52.902;6.534;2023-04-08T10:48:15;15.88;;;9.70;;
62052;SDS011;48300;52.902;6.534;2023-04-08T10:50:42;14.95;;;9.80;;
62052;SDS011;48300;52.902;6.534;2023-04-08T10:53:08;19.45;;;11.60;;
62052;SDS011;48300;52.902;6.534;2023-04-08T10:55:35;18.15;;;10.20;;
62052;SDS011;48300;52.902;6.534;2023-04-08T10:58:08;18.15;;;11.23;;
62052;SDS011;48300;52.902;6.534;2023-04-08T11:00:36;19.00;;;11.50;;
62052;SDS011;48300;52.902;6.534;2023-04-08T11:03:03;17.08;;;10.43;;
62052;SDS011;48300;52.902;6.534;2023-04-08T11:05:30;16.52;;;9.95;;
62052;SDS011;48300;52.902;6.534;2023-04-08T11:07:58;14.52;;;8.93;;
62052;SDS011;48300;52.902;6.534;2023-04-08T11:10:24;16.97;;;9.90;;
62052;SDS011;48300;52.902;6.534;2023-04-08T11:12:52;15.02;;;9.45;;
62052;SDS011;48300;52.902;6.534;2023-04-08T11:15:18;14.75;;;8.00;;
62052;SDS011;48300;52.902;6.534;2023-04-08T11:17:45;14.40;;;8.60;;
62052;SDS011;48300;52.902;6.534;2023-04-08T11:20:12;13.90;;;8.60;;
62052;SDS011;48300;52.902;6.534;2023-04-08T11:22:38;14.65;;;8.85;;
62052;SDS011;48300;52.902;6.534;2023-04-08T11:25:06;13.40;;;8.20;;
62052;SDS011;48300;52.902;6.534;2023-04-08T11:27:34;13.18;;;7.00;;
62052;SDS011;48300;52.902;6.534;2023-04-08T11:30:00;12.98;;;7.90;;
62052;SDS011;48300;52.902;6.534;2023-04-08T11:32:27;12.63;;;8.18;;
62052;SDS011;48300;52.902;6.534;2023-04-08T11:34:53;15.63;;;8.60;;
62052;SDS011;48300;52.902;6.534;2023-04-08T11:37:20;13.30;;;7.85;;
62052;SDS011;48300;52.902;6.534;2023-04-08T11:39:46;12.85;;;7.78;;
62052;SDS011;48300;52.902;6.534;2023-04-08T11:42:25;11.02;;;6.95;;
62052;SDS011;48300;52.902;6.534;2023-04-08T11:44:51;13.95;;;7.13;;
62052;SDS011;48300;52.902;6.534;2023-04-08T11:47:17;11.25;;;6.93;;
62052;SDS011;48300;52.902;6.534;2023-04-08T11:49:44;13.10;;;6.93;;
62052;SDS011;48300;52.902;6.534;2023-04-08T11:52:10;13.13;;;7.65;;
62052;SDS011;48300;52.902;6.534;2023-04-08T11:54:39;14.30;;;7.53;;
62052;SDS011;48300;52.902;6.534;2023-04-08T11:57:06;12.40;;;7.93;;
62052;SDS011;48300;52.902;6.534;2023-04-08T11:59:34;10.77;;;6.97;;
62052;SDS011;48300;52.902;6.534;2023-04-08T12:02:01;12.23;;;7.75;;
62052;SDS011;48300;52.902;6.534;2023-04-08T12:04:27;14.15;;;7.72;;
62052;SDS011;48300;52.902;6.534;2023-04-08T12:06:54;12.02;;;6.95;;
62052;SDS011;48300;52.902;6.534;2023-04-08T12:09:20;12.90;;;7.07;;
62052;SDS011;48300;52.902;6.534;2023-04-08T12:11:46;14.80;;;7.95;;
62052;SDS011;48300;52.902;6.534;2023-04-08T12:14:13;15.63;;;8.02;;
62052;SDS011;48300;52.902;6.534;2023-04-08T12:16:39;14.55;;;8.13;;
62052;SDS011;48300;52.902;6.534;2023-04-08T12:19:05;14.95;;;8.02;;
62052;SDS011;48300;52.902;6.534;2023-04-08T12:21:31;14.70;;;8.77;;
62052;SDS011;48300;52.902;6.534;2023-04-08T12:23:58;24.42;;;13.43;;
62052;SDS011;48300;52.902;6.534;2023-04-08T12:26:25;27.65;;;14.35;;
62052;SDS011;48300;52.902;6.534;2023-04-08T12:28:51;34.65;;;18.88;;
62052;SDS011;48300;52.902;6.534;2023-04-08T12:31:17;24.77;;;11.05;;
62052;SDS011;48300;52.902;6.534;2023-04-08T12:33:43;20.33;;;10.77;;
62052;SDS011;48300;52.902;6.534;2023-04-08T12:36:09;19.48;;;10.73;;
62052;SDS011;48300;52.902;6.534;2023-04-08T12:38:36;28.30;;;14.57;;
62052;SDS011;48300;52.902;6.534;2023-04-08T12:41:02;20.15;;;10.98;;
62052;SDS011;48300;52.902;6.534;2023-04-08T12:43:28;23.20;;;11.48;;
62052;SDS011;48300;52.902;6.534;2023-04-08T12:45:56;23.63;;;11.73;;
62052;SDS011;48300;52.902;6.534;2023-04-08T12:48:22;22.52;;;11.98;;
62052;SDS011;48300;52.902;6.534;2023-04-08T12:50:49;25.23;;;11.95;;
62052;SDS011;48300;52.902;6.534;2023-04-08T12:53:15;28.02;;;13.10;;
62052;SDS011;48300;52.902;6.534;2023-04-08T12:55:41;28.23;;;13.25;;
62052;SDS011;48300;52.902;6.534;2023-04-08T12:58:07;25.38;;;12.80;;
62052;SDS011;48300;52.902;6.534;2023-04-08T13:00:33;27.98;;;13.43;;
62052;SDS011;48300;52.902;6.534;2023-04-08T13:03:03;35.03;;;17.95;;
62052;SDS011;48300;52.902;6.534;2023-04-08T13:05:30;35.75;;;18.92;;
62052;SDS011;48300;52.902;6.534;2023-04-08T13:07:57;50.90;;;25.58;;
62052;SDS011;48300;52.902;6.534;2023-04-08T13:10:23;26.67;;;14.02;;
62052;SDS011;48300;52.902;6.534;2023-04-08T13:12:49;35.65;;;18.13;;
62052;SDS011;48300;52.902;6.534;2023-04-08T13:15:15;28.42;;;14.45;;
62052;SDS011;48300;52.902;6.534;2023-04-08T13:17:42;26.88;;;15.35;;
62052;SDS011;48300;52.902;6.534;2023-04-08T13:20:09;38.42;;;23.05;;
62052;SDS011;48300;52.902;6.534;2023-04-08T13:22:36;38.17;;;21.35;;
62052;SDS011;48300;52.902;6.534;2023-04-08T13:25:02;38.17;;;19.70;;
62052;SDS011;48300;52.902;6.534;2023-04-08T13:27:30;31.95;;;18.50;;
62052;SDS011;48300;52.902;6.534;2023-04-08T13:29:56;31.88;;;17.75;;
62052;SDS011;48300;52.902;6.534;2023-04-08T13:32:22;36.88;;;20.27;;
62052;SDS011;48300;52.902;6.534;2023-04-08T13:34:48;31.08;;;16.73;;
62052;SDS011;48300;52.902;6.534;2023-04-08T13:37:15;36.50;;;21.77;;
62052;SDS011;48300;52.902;6.534;2023-04-08T13:39:41;33.67;;;19.65;;
62052;SDS011;48300;52.902;6.534;2023-04-08T13:42:07;36.45;;;19.63;;
62052;SDS011;48300;52.902;6.534;2023-04-08T13:44:33;32.40;;;15.93;;
62052;SDS011;48300;52.902;6.534;2023-04-08T13:46:59;40.15;;;19.92;;
62052;SDS011;48300;52.902;6.534;2023-04-08T13:49:26;38.08;;;19.77;;
62052;SDS011;48300;52.902;6.534;2023-04-08T13:51:52;33.03;;;16.33;;
62052;SDS011;48300;52.902;6.534;2023-04-08T13:54:18;37.35;;;16.70;;
62052;SDS011;48300;52.902;6.534;2023-04-08T13:56:45;36.60;;;17.55;;
62052;SDS011;48300;52.902;6.534;2023-04-08T13:59:11;34.78;;;16.77;;
62052;SDS011;48300;52.902;6.534;2023-04-08T14:01:37;39.85;;;17.45;;
62052;SDS011;48300;52.902;6.534;2023-04-08T14:04:05;35.40;;;17.40;;
62052;SDS011;48300;52.902;6.534;2023-04-08T14:06:32;33.90;;;18.27;;
62052;SDS011;48300;52.902;6.534;2023-04-08T14:09:00;42.63;;;24.08;;
62052;SDS011;48300;52.902;6.534;2023-04-08T14:11:26;36.58;;;19.55;;
62052;SDS011;48300;52.902;6.534;2023-04-08T14:13:52;36.55;;;17.48;;
62052;SDS011;48300;52.902;6.534;2023-04-08T14:16:19;40.45;;;18.75;;
62052;SDS011;48300;52.902;6.534;2023-04-08T14:18:45;35.95;;;16.67;;
62052;SDS011;48300;52.902;6.534;2023-04-08T14:21:11;52.25;;;31.75;;
62052;SDS011;48300;52.902;6.534;2023-04-08T14:23:40;40.05;;;19.70;;
62052;SDS011;48300;52.902;6.534;2023-04-08T14:26:07;33.33;;;16.98;;
62052;SDS011;48300;52.902;6.534;2023-04-08T14:28:33;38.90;;;18.73;;
62052;SDS011;48300;52.902;6.534;2023-04-08T14:30:59;41.65;;;20.05;;
62052;SDS011;48300;52.902;6.534;2023-04-08T14:33:25;39.40;;;18.83;;
62052;SDS011;48300;52.902;6.534;2023-04-08T14:35:51;39.70;;;21.95;;
62052;SDS011;48300;52.902;6.534;2023-04-08T14:38:18;34.75;;;20.08;;
62052;SDS011;48300;52.902;6.534;2023-04-08T14:40:45;35.03;;;19.30;;
62052;SDS011;48300;52.902;6.534;2023-04-08T14:43:11;38.33;;;18.27;;